Time;durP1;ratioP1;P1;durP2;ratioP2;P2;SDS_P1;SDS_P2;PMS_P1;PMS_P2;Temp;Humidity;BMP_temperature;BMP_pressure;BME280_temperature;BME280_humidity;BME280_pressure;Samples;Min_cycle;Max_cycle;Signal;HPM_P1;HPM_P2
2021/03/27 00:01:48;;;;;;;5.77;3.70;;;;;;;;;;5050418;28;20604;-50
2021/03/27 00:04:44;;;;;;;7.33;3.93;;;;;;;;;;5060678;28;20198;-51
2021/03/27 00:07:26;;;;;;;5.63;3.60;;;;;;;;;;5043626;28;20209;-51
2021/03/27 00:10:17;;;;;;;7.83;5.23;;;;;;;;;;5062205;28;20280;-52
2021/03/27 00:12:52;;;;;;;4.10;2.67;;;;;;;;;;5057151;28;20222;-50
2021/03/27 00:15:37;;;;;;;4.87;3.13;;;;;;;;;;5065448;28;20391;-52
2021/03/27 00:18:11;;;;;;;4.23;2.93;;;;;;;;;;5067152;28;20184;-52
2021/03/27 00:21:01;;;;;;;5.73;2.93;;;;;;;;;;5060663;28;20185;-51
2021/03/27 00:23:34;;;;;;;2.90;2.20;;;;;;;;;;5061232;28;20585;-50
2021/03/27 00:26:06;;;;;;;5.73;4.40;;;;;;;;;;5056344;28;20610;-50
2021/03/27 00:28:55;;;;;;;2.07;1.97;;;;;;;;;;5066321;28;20189;-50
2021/03/27 00:31:26;;;;;;;2.53;2.30;;;;;;;;;;5061205;28;20244;-50
2021/03/27 00:33:55;;;;;;;7.80;3.43;;;;;;;;;;5061541;28;20238;-53
2021/03/27 00:36:43;;;;;;;2.33;1.87;;;;;;;;;;5044373;28;20240;-52
2021/03/27 00:39:14;;;;;;;5.33;2.30;;;;;;;;;;5060054;28;20207;-53
2021/03/27 00:41:54;;;;;;;2.33;2.13;;;;;;;;;;5044523;28;20248;-53
2021/03/27 00:44:23;;;;;;;5.97;4.03;;;;;;;;;;5043620;28;20695;-53
2021/03/27 00:46:50;;;;;;;2.67;2.30;;;;;;;;;;5062152;28;20213;-52
2021/03/27 00:49:19;;;;;;;7.70;4.27;;;;;;;;;;5044403;28;20819;-53
2021/03/27 00:51:52;;;;;;;5.30;3.03;;;;;;;;;;5061104;28;20575;-53
2021/03/27 00:54:30;;;;;;;8.37;5.50;;;;;;;;;;5060900;28;20202;-51
2021/03/27 00:57:10;;;;;;;7.13;4.17;;;;;;;;;;5064683;28;20291;-50
2021/03/27 00:59:39;;;;;;;6.23;3.87;;;;;;;;;;5060436;28;20194;-52
2021/03/27 01:02:12;;;;;;;3.60;2.63;;;;;;;;;;5061543;28;20272;-53
2021/03/27 01:04:40;;;;;;;5.57;3.03;;;;;;;;;;5058315;28;20185;-53
2021/03/27 01:07:12;;;;;;;4.27;1.80;;;;;;;;;;5062746;28;20209;-51
2021/03/27 01:09:37;;;;;;;3.77;3.40;;;;;;;;;;5060233;28;20193;-54
2021/03/27 01:12:12;;;;;;;4.87;2.73;;;;;;;;;;5057588;28;20205;-53
2021/03/27 01:14:44;;;;;;;8.07;5.07;;;;;;;;;;5044182;28;20192;-50
2021/03/27 01:17:15;;;;;;;4.23;2.27;;;;;;;;;;5044832;28;20267;-53
2021/03/27 01:19:45;;;;;;;1.60;1.43;;;;;;;;;;5063364;28;20204;-52
2021/03/27 01:22:13;;;;;;;5.73;2.90;;;;;;;;;;5060963;28;20729;-51
2021/03/27 01:24:39;;;;;;;2.93;2.53;;;;;;;;;;5054650;28;20220;-51
2021/03/27 01:27:25;;;;;;;4.33;2.97;;;;;;;;;;5061194;28;20272;-53
2021/03/27 01:29:50;;;;;;;4.57;3.57;;;;;;;;;;5060267;28;20210;-52
2021/03/27 01:32:36;;;;;;;2.47;2.27;;;;;;;;;;5059548;28;20216;-52
2021/03/27 01:35:07;;;;;;;4.23;2.07;;;;;;;;;;5063095;28;20189;-53
2021/03/27 01:37:46;;;;;;;4.07;2.73;;;;;;;;;;5061173;28;20219;-52
2021/03/27 01:40:42;;;;;;;2.03;1.47;;;;;;;;;;5032834;28;20595;-53
2021/03/27 01:43:12;;;;;;;2.27;1.93;;;;;;;;;;5058153;28;20185;-53
2021/03/27 01:45:53;;;;;;;3.13;2.10;;;;;;;;;;5059588;28;20207;-52
2021/03/27 01:48:32;;;;;;;9.07;3.77;;;;;;;;;;5043842;28;20200;-53
2021/03/27 01:51:03;;;;;;;5.10;2.97;;;;;;;;;;5054925;28;20571;-52
2021/03/27 01:53:35;;;;;;;7.83;4.60;;;;;;;;;;5054826;28;20653;-50
2021/03/27 01:56:09;;;;;;;6.30;3.10;;;;;;;;;;5061724;28;20305;-52
2021/03/27 01:59:03;;;;;;;2.33;1.83;;;;;;;;;;5064765;28;20267;-53
2021/03/27 02:01:33;;;;;;;6.27;3.43;;;;;;;;;;5063925;28;20198;-54
2021/03/27 02:04:08;;;;;;;6.53;2.97;;;;;;;;;;5038993;28;20786;-50
2021/03/27 02:07:16;;;;;;;4.70;2.80;;;;;;;;;;5057270;28;20636;-50
2021/03/27 02:10:12;;;;;;;4.50;2.83;;;;;;;;;;5057166;28;20842;-52
2021/03/27 02:12:56;;;;;;;7.37;3.03;;;;;;;;;;5059411;28;20657;-52
2021/03/27 02:15:50;;;;;;;3.23;2.50;;;;;;;;;;5042721;28;20186;-51
2021/03/27 02:18:51;;;;;;;3.77;2.20;;;;;;;;;;5042452;28;20597;-50
2021/03/27 02:21:35;;;;;;;4.27;3.00;;;;;;;;;;5041877;28;20306;-52
2021/03/27 02:24:05;;;;;;;4.87;2.37;;;;;;;;;;5056917;28;20189;-53
2021/03/27 02:26:52;;;;;;;3.80;2.63;;;;;;;;;;5046177;28;20231;-51
2021/03/27 02:29:31;;;;;;;3.67;2.97;;;;;;;;;;5060119;28;20197;-53
2021/03/27 02:32:09;;;;;;;4.23;3.37;;;;;;;;;;5051622;28;20270;-53
2021/03/27 02:35:00;;;;;;;2.77;2.20;;;;;;;;;;5061816;28;20193;-50
2021/03/27 02:37:35;;;;;;;4.77;2.40;;;;;;;;;;5058990;28;20216;-53
2021/03/27 02:40:24;;;;;;;4.23;3.13;;;;;;;;;;5064830;28;20184;-53
2021/03/27 02:43:10;;;;;;;1.87;1.40;;;;;;;;;;5061902;28;20185;-51
2021/03/27 02:45:58;;;;;;;7.07;2.67;;;;;;;;;;5055401;28;20269;-54
2021/03/27 02:48:55;;;;;;;6.83;3.43;;;;;;;;;;5041672;28;20192;-52
2021/03/27 02:51:33;;;;;;;7.10;3.90;;;;;;;;;;5059824;28;20297;-52
2021/03/27 02:54:09;;;;;;;4.17;3.33;;;;;;;;;;5065292;28;20185;-52
2021/03/27 02:56:34;;;;;;;4.70;3.30;;;;;;;;;;5062760;28;20768;-53
2021/03/27 02:59:12;;;;;;;3.50;2.40;;;;;;;;;;5050736;28;20194;-53
2021/03/27 03:02:06;;;;;;;7.07;3.40;;;;;;;;;;5062676;28;20181;-53
2021/03/27 03:04:44;;;;;;;5.90;3.33;;;;;;;;;;5058227;28;20221;-53
2021/03/27 03:07:23;;;;;;;3.70;2.73;;;;;;;;;;5063338;28;20197;-51
2021/03/27 03:09:54;;;;;;;6.17;3.93;;;;;;;;;;5061104;28;20193;-53
2021/03/27 03:12:38;;;;;;;4.40;2.87;;;;;;;;;;5066036;28;20213;-53
2021/03/27 03:15:19;;;;;;;4.43;3.13;;;;;;;;;;5056909;28;20189;-52
2021/03/27 03:18:00;;;;;;;5.40;3.23;;;;;;;;;;5060058;28;20221;-52
2021/03/27 03:20:43;;;;;;;2.30;1.77;;;;;;;;;;5064125;28;20185;-52
2021/03/27 03:23:26;;;;;;;2.13;1.87;;;;;;;;;;5065395;28;20186;-52
2021/03/27 03:26:20;;;;;;;3.97;2.53;;;;;;;;;;5063943;28;20205;-51
2021/03/27 03:28:58;;;;;;;8.97;3.73;;;;;;;;;;5038622;28;20190;-53
2021/03/27 03:31:43;;;;;;;5.57;3.40;;;;;;;;;;5061671;28;20205;-52
2021/03/27 03:34:26;;;;;;;2.00;1.63;;;;;;;;;;5061284;28;20193;-52
2021/03/27 03:37:07;;;;;;;5.10;2.70;;;;;;;;;;5055826;28;20231;-53
2021/03/27 03:39:44;;;;;;;2.70;2.13;;;;;;;;;;5060383;28;20193;-51
2021/03/27 03:42:47;;;;;;;5.20;3.33;;;;;;;;;;5062358;28;20188;-52
2021/03/27 03:45:32;;;;;;;6.57;3.60;;;;;;;;;;5061432;28;20243;-53
2021/03/27 03:48:08;;;;;;;7.70;3.37;;;;;;;;;;5062878;28;20642;-53
2021/03/27 03:50:59;;;;;;;1.83;1.67;;;;;;;;;;5046514;28;20221;-53
2021/03/27 03:53:55;;;;;;;4.37;2.30;;;;;;;;;;5043058;28;20888;-53
2021/03/27 03:56:41;;;;;;;6.00;2.63;;;;;;;;;;5038039;28;20221;-50
2021/03/27 03:59:30;;;;;;;4.50;2.30;;;;;;;;;;5062322;28;20189;-51
2021/03/27 04:02:04;;;;;;;1.60;1.50;;;;;;;;;;5063457;28;20186;-53
2021/03/27 04:04:42;;;;;;;4.67;2.50;;;;;;;;;;5066190;28;20226;-53
2021/03/27 04:07:13;;;;;;;3.63;2.40;;;;;;;;;;5061418;28;20205;-51
2021/03/27 04:09:49;;;;;;;7.80;3.57;;;;;;;;;;5062417;28;20583;-53
2021/03/27 04:12:22;;;;;;;2.87;1.90;;;;;;;;;;5021780;28;20278;-52
2021/03/27 04:15:13;;;;;;;5.20;2.90;;;;;;;;;;5063314;28;20186;-52
2021/03/27 04:17:38;;;;;;;3.63;3.00;;;;;;;;;;5065043;28;20694;-52
2021/03/27 04:20:12;;;;;;;3.57;2.50;;;;;;;;;;5060105;28;20197;-50
2021/03/27 04:22:43;;;;;;;4.70;2.90;;;;;;;;;;5054850;28;20715;-52
2021/03/27 04:25:14;;;;;;;4.57;3.00;;;;;;;;;;5053896;28;20563;-50
2021/03/27 04:28:13;;;;;;;4.13;3.23;;;;;;;;;;5046583;28;20224;-51
2021/03/27 04:30:44;;;;;;;5.50;3.60;;;;;;;;;;5077698;23;20236;-49
2021/03/27 04:33:34;;;;;;;5.63;3.63;;;;;;;;;;5067611;28;20635;-50
2021/03/27 04:36:06;;;;;;;4.83;3.87;;;;;;;;;;5045691;28;20657;-47
2021/03/27 04:38:45;;;;;;;7.00;4.40;;;;;;;;;;5063221;28;20185;-49
2021/03/27 04:41:40;;;;;;;5.07;3.67;;;;;;;;;;5071507;28;20628;-49
2021/03/27 04:44:24;;;;;;;5.73;4.50;;;;;;;;;;5055450;28;20708;-50
2021/03/27 04:47:10;;;;;;;6.63;4.87;;;;;;;;;;5084543;28;20222;-48
2021/03/27 04:49:43;;;;;;;5.83;5.23;;;;;;;;;;5081217;28;20275;-52
2021/03/27 04:52:21;;;;;;;6.47;5.20;;;;;;;;;;5057500;28;20211;-49
2021/03/27 04:54:56;;;;;;;6.80;2.87;;;;;;;;;;5082941;28;20213;-48
2021/03/27 04:57:35;;;;;;;3.80;2.23;;;;;;;;;;5048058;28;20332;-49
2021/03/27 05:00:03;;;;;;;2.10;1.90;;;;;;;;;;5067858;28;20201;-49
2021/03/27 05:03:02;;;;;;;3.60;1.50;;;;;;;;;;5082805;28;20644;-48
2021/03/27 05:06:05;;;;;;;1.33;1.20;;;;;;;;;;5073365;28;20204;-50
2021/03/27 05:09:04;;;;;;;2.03;1.40;;;;;;;;;;5065117;28;20216;-47
2021/03/27 05:12:07;;;;;;;1.93;1.27;;;;;;;;;;5079560;28;20607;-48
2021/03/27 05:14:46;;;;;;;2.20;1.30;;;;;;;;;;5050816;28;20204;-48
2021/03/27 05:17:33;;;;;;;5.27;1.17;;;;;;;;;;5075966;28;20218;-48
2021/03/27 05:20:06;;;;;;;1.47;1.00;;;;;;;;;;5079178;28;20188;-50
2021/03/27 05:22:59;;;;;;;1.80;1.30;;;;;;;;;;5080614;28;20242;-48
2021/03/27 05:25:24;;;;;;;4.27;1.20;;;;;;;;;;5078417;28;20219;-50
2021/03/27 05:28:12;;;;;;;1.00;0.90;;;;;;;;;;5074559;28;20792;-57
2021/03/27 05:30:50;;;;;;;1.70;1.20;;;;;;;;;;5056474;28;20680;-49
2021/03/27 05:33:22;;;;;;;1.63;0.90;;;;;;;;;;5074710;28;20249;-49
2021/03/27 05:35:53;;;;;;;1.47;1.20;;;;;;;;;;5081153;28;20643;-49
2021/03/27 05:38:31;;;;;;;1.97;1.33;;;;;;;;;;5078397;28;20204;-50
2021/03/27 05:41:23;;;;;;;2.37;1.67;;;;;;;;;;5066208;28;20215;-50
2021/03/27 05:44:08;;;;;;;3.10;2.00;;;;;;;;;;5067751;28;20205;-50
2021/03/27 05:46:44;;;;;;;3.03;2.27;;;;;;;;;;5073943;28;20200;-50
2021/03/27 05:49:16;;;;;;;1.90;1.80;;;;;;;;;;5074265;28;20185;-50
2021/03/27 05:51:56;;;;;;;2.20;1.80;;;;;;;;;;5079178;28;20209;-49
2021/03/27 05:54:49;;;;;;;2.40;1.40;;;;;;;;;;5085342;28;20192;-49
2021/03/27 05:57:49;;;;;;;1.67;1.57;;;;;;;;;;5067431;28;20192;-49
2021/03/27 06:00:29;;;;;;;2.23;1.83;;;;;;;;;;5077312;28;20234;-48
2021/03/27 06:03:25;;;;;;;3.27;1.87;;;;;;;;;;5078222;28;20212;-48
2021/03/27 06:06:27;;;;;;;2.20;1.90;;;;;;;;;;5073850;28;20191;-49
2021/03/27 06:09:24;;;;;;;2.27;1.80;;;;;;;;;;5074699;28;20185;-50
2021/03/27 06:12:12;;;;;;;3.27;2.13;;;;;;;;;;5071553;28;20205;-48
2021/03/27 06:14:54;;;;;;;2.60;2.30;;;;;;;;;;5043015;28;20193;-49
2021/03/27 06:17:38;;;;;;;2.97;2.37;;;;;;;;;;5083408;28;20200;-49
2021/03/27 06:20:25;;;;;;;3.10;2.63;;;;;;;;;;5066951;28;20189;-49
2021/03/27 06:23:04;;;;;;;2.97;2.67;;;;;;;;;;5085230;28;20188;-48
2021/03/27 06:26:04;;;;;;;3.17;2.87;;;;;;;;;;5077546;28;20203;-49
2021/03/27 06:28:46;;;;;;;2.70;2.50;;;;;;;;;;5082259;28;20652;-48
2021/03/27 06:31:48;;;;;;;3.67;3.03;;;;;;;;;;5071621;28;20224;-49
2021/03/27 06:34:52;;;;;;;3.80;2.70;;;;;;;;;;5078835;28;20200;-48
2021/03/27 06:37:18;;;;;;;3.40;3.10;;;;;;;;;;5067962;28;20271;-48
2021/03/27 06:40:01;;;;;;;3.10;2.80;;;;;;;;;;5070645;28;20334;-48
2021/03/27 06:43:04;;;;;;;3.43;3.13;;;;;;;;;;5079810;28;20660;-48
2021/03/27 06:46:08;;;;;;;2.80;2.40;;;;;;;;;;5086542;28;20244;-49
2021/03/27 06:48:37;;;;;;;3.13;2.83;;;;;;;;;;5066308;28;20738;-48
2021/03/27 06:51:40;;;;;;;4.57;3.20;;;;;;;;;;5076598;28;20262;-48
2021/03/27 06:54:24;;;;;;;3.83;3.30;;;;;;;;;;5007393;28;20249;-50
2021/03/27 06:57:07;;;;;;;4.40;3.80;;;;;;;;;;5006189;28;20191;-49
2021/03/27 06:59:55;;;;;;;4.10;3.57;;;;;;;;;;5061888;28;20665;-49
2021/03/27 07:02:32;;;;;;;4.20;3.80;;;;;;;;;;5087520;28;20188;-48
2021/03/27 07:05:36;;;;;;;5.47;3.40;;;;;;;;;;5081395;28;20196;-48
2021/03/27 07:08:29;;;;;;;6.60;4.40;;;;;;;;;;5066070;28;20683;-50
2021/03/27 07:11:19;;;;;;;7.50;4.50;;;;;;;;;;5081305;28;20244;-48
2021/03/27 07:14:06;;;;;;;5.13;4.50;;;;;;;;;;5064272;28;20682;-49
2021/03/27 07:16:36;;;;;;;7.27;4.87;;;;;;;;;;5074583;28;20219;-50
2021/03/27 07:19:40;;;;;;;5.20;4.53;;;;;;;;;;5086538;28;20193;-48
2021/03/27 07:22:29;;;;;;;5.83;5.00;;;;;;;;;;5068394;28;20236;-50
2021/03/27 07:25:25;;;;;;;6.33;5.73;;;;;;;;;;5087894;28;20180;-51
2021/03/27 07:27:59;;;;;;;7.43;5.63;;;;;;;;;;5086511;28;20196;-51
2021/03/27 07:30:42;;;;;;;7.77;5.93;;;;;;;;;;5079666;28;20220;-49
2021/03/27 07:33:29;;;;;;;8.53;6.57;;;;;;;;;;5081042;28;20238;-49
2021/03/27 07:36:08;;;;;;;8.67;6.37;;;;;;;;;;5082311;28;20200;-48
2021/03/27 07:39:02;;;;;;;6.93;6.03;;;;;;;;;;5081057;28;20214;-49
2021/03/27 07:42:04;;;;;;;7.87;6.63;;;;;;;;;;5079452;28;20204;-48
2021/03/27 07:44:55;;;;;;;7.60;6.03;;;;;;;;;;5079527;28;20197;-49
2021/03/27 07:47:36;;;;;;;6.03;5.27;;;;;;;;;;5085432;28;20197;-51
2021/03/27 07:50:40;;;;;;;10.87;6.83;;;;;;;;;;5086767;28;20192;-48
2021/03/27 07:53:43;;;;;;;6.50;3.63;;;;;;;;;;5075581;28;20202;-50
2021/03/27 07:56:38;;;;;;;7.00;3.67;;;;;;;;;;5084925;28;20275;-48
2021/03/27 07:59:22;;;;;;;4.43;3.23;;;;;;;;;;5080297;28;20277;-51
2021/03/27 08:01:53;;;;;;;7.57;3.87;;;;;;;;;;5073647;28;20699;-49
2021/03/27 08:04:39;;;;;;;5.97;4.30;;;;;;;;;;5083832;28;20227;-50
2021/03/27 08:07:13;;;;;;;12.07;4.40;;;;;;;;;;5080557;28;20192;-49
2021/03/27 08:09:48;;;;;;;7.73;3.57;;;;;;;;;;5052245;28;20195;-50
2021/03/27 08:12:13;;;;;;;7.43;4.40;;;;;;;;;;5074480;28;20207;-48
2021/03/27 08:14:57;;;;;;;6.17;3.90;;;;;;;;;;5075587;28;20926;-51
2021/03/27 08:17:38;;;;;;;8.30;4.73;;;;;;;;;;5090219;28;20191;-49
2021/03/27 08:20:29;;;;;;;6.17;4.40;;;;;;;;;;5073329;28;20201;-50
2021/03/27 08:23:01;;;;;;;8.50;4.13;;;;;;;;;;5081901;28;20656;-48
2021/03/27 08:25:37;;;;;;;7.10;3.90;;;;;;;;;;5081818;28;20303;-49
2021/03/27 08:28:16;;;;;;;7.40;3.93;;;;;;;;;;5080604;28;20187;-50
2021/03/27 08:30:41;;;;;;;8.20;3.60;;;;;;;;;;5077300;28;20299;-50
2021/03/27 08:33:31;;;;;;;6.10;5.00;;;;;;;;;;5080769;28;20315;-51
2021/03/27 08:36:10;;;;;;;7.43;3.90;;;;;;;;;;5076192;28;20201;-52
2021/03/27 08:39:13;;;;;;;8.80;4.70;;;;;;;;;;5083525;28;20196;-47
2021/03/27 08:41:49;;;;;;;6.70;4.50;;;;;;;;;;5065194;28;20593;-49
2021/03/27 08:44:39;;;;;;;6.03;3.67;;;;;;;;;;5085974;28;20610;-53
2021/03/27 08:47:22;;;;;;;7.00;3.77;;;;;;;;;;5083607;28;20202;-51
2021/03/27 08:50:18;;;;;;;9.57;4.13;;;;;;;;;;5078585;28;20272;-50
2021/03/27 08:53:21;;;;;;;5.47;3.90;;;;;;;;;;5076454;28;20277;-49
2021/03/27 08:56:08;;;;;;;5.80;3.57;;;;;;;;;;5071201;28;20634;-49
2021/03/27 08:58:46;;;;;;;9.10;3.70;;;;;;;;;;5074527;28;20572;-51
2021/03/27 09:01:25;;;;;;;3.87;2.97;;;;;;;;;;5080102;28;20211;-51
2021/03/27 09:04:19;;;;;;;8.40;2.97;;;;;;;;;;5062629;28;20193;-49
2021/03/27 09:07:00;;;;;;;6.90;3.13;;;;;;;;;;5066496;28;20192;-51
2021/03/27 09:09:38;;;;;;;4.23;2.90;;;;;;;;;;5071251;28;20196;-50
2021/03/27 09:12:19;;;;;;;4.67;3.30;;;;;;;;;;5070466;28;20325;-49
2021/03/27 09:15:05;;;;;;;5.47;2.37;;;;;;;;;;5071782;28;20200;-49
2021/03/27 09:18:05;;;;;;;7.00;2.67;;;;;;;;;;5070195;28;20209;-48
2021/03/27 09:20:42;;;;;;;7.33;2.83;;;;;;;;;;5073036;28;20205;-49
2021/03/27 09:23:26;;;;;;;6.07;2.60;;;;;;;;;;5077675;28;20203;-50
2021/03/27 09:26:16;;;;;;;7.03;3.20;;;;;;;;;;5074209;28;20185;-50
2021/03/27 09:29:10;;;;;;;8.23;2.77;;;;;;;;;;5069497;28;20181;-49
2021/03/27 09:32:00;;;;;;;5.67;2.47;;;;;;;;;;5079381;28;20217;-51
2021/03/27 09:34:37;;;;;;;7.27;3.63;;;;;;;;;;5080697;28;20644;-49
2021/03/27 09:37:31;;;;;;;5.90;2.70;;;;;;;;;;5080374;28;20763;-49
2021/03/27 09:40:14;;;;;;;5.67;2.70;;;;;;;;;;5079702;28;20656;-52
2021/03/27 09:42:52;;;;;;;8.17;2.30;;;;;;;;;;5078806;28;20263;-49
2021/03/27 09:45:29;;;;;;;3.40;1.80;;;;;;;;;;5075935;28;20196;-48
2021/03/27 09:48:17;;;;;;;5.63;2.67;;;;;;;;;;5074932;28;20440;-50
2021/03/27 09:50:51;;;;;;;3.47;2.20;;;;;;;;;;5077562;28;20216;-49
2021/03/27 09:53:34;;;;;;;6.63;2.23;;;;;;;;;;5072949;28;20198;-50
2021/03/27 09:56:04;;;;;;;9.70;3.50;;;;;;;;;;5085177;28;20185;-52
2021/03/27 09:58:46;;;;;;;5.57;3.10;;;;;;;;;;5088424;28;20882;-52
2021/03/27 10:01:39;;;;;;;3.83;1.70;;;;;;;;;;5075265;28;20203;-52
2021/03/27 10:04:20;;;;;;;2.97;1.90;;;;;;;;;;5074948;28;20650;-51
2021/03/27 10:06:54;;;;;;;5.37;2.30;;;;;;;;;;5088556;28;20192;-49
2021/03/27 10:09:48;;;;;;;3.17;1.77;;;;;;;;;;5082326;28;20272;-51
2021/03/27 10:12:21;;;;;;;4.93;2.13;;;;;;;;;;5068869;28;20220;-51
2021/03/27 10:15:01;;;;;;;1.63;1.40;;;;;;;;;;5071039;28;20193;-50
2021/03/27 10:17:34;;;;;;;4.40;1.40;;;;;;;;;;5087945;28;20193;-51
2021/03/27 10:20:09;;;;;;;2.97;1.53;;;;;;;;;;5071093;28;20184;-51
2021/03/27 10:23:02;;;;;;;2.70;1.20;;;;;;;;;;5069357;28;20188;-51
2021/03/27 10:25:36;;;;;;;2.13;1.20;;;;;;;;;;5068763;28;20678;-50
2021/03/27 10:28:24;;;;;;;1.43;0.90;;;;;;;;;;5087870;28;20540;-51
2021/03/27 10:31:02;;;;;;;2.20;1.40;;;;;;;;;;5087352;28;20698;-51
2021/03/27 10:33:55;;;;;;;2.50;1.67;;;;;;;;;;5082148;28;20225;-49
2021/03/27 10:36:53;;;;;;;4.50;1.40;;;;;;;;;;5061118;28;20193;-53
2021/03/27 10:39:31;;;;;;;2.70;1.77;;;;;;;;;;5053927;28;20184;-52
2021/03/27 10:42:27;;;;;;;2.33;1.13;;;;;;;;;;5088757;28;20751;-49
2021/03/27 10:45:16;;;;;;;1.87;1.20;;;;;;;;;;5065563;28;20227;-51
2021/03/27 10:48:02;;;;;;;2.77;1.37;;;;;;;;;;5071325;28;20189;-51
2021/03/27 10:50:36;;;;;;;3.30;1.40;;;;;;;;;;5085135;28;20895;-50
2021/03/27 10:53:29;;;;;;;6.10;2.07;;;;;;;;;;5067636;28;20582;-50
2021/03/27 10:56:10;;;;;;;3.13;1.60;;;;;;;;;;5068531;28;20272;-50
2021/03/27 10:59:06;;;;;;;3.10;1.20;;;;;;;;;;5089390;28;20612;-52
2021/03/27 11:02:03;;;;;;;1.90;1.00;;;;;;;;;;5088262;28;20216;-51
2021/03/27 11:04:50;;;;;;;1.97;1.30;;;;;;;;;;5087989;28;20660;-50
2021/03/27 11:07:48;;;;;;;1.37;0.90;;;;;;;;;;5064739;28;20189;-50
2021/03/27 11:10:46;;;;;;;1.40;1.20;;;;;;;;;;5080434;28;20195;-49
2021/03/27 11:13:39;;;;;;;1.23;1.00;;;;;;;;;;5076473;28;20196;-49
2021/03/27 11:16:37;;;;;;;3.17;1.30;;;;;;;;;;5069175;28;20196;-51
2021/03/27 11:19:19;;;;;;;2.77;1.27;;;;;;;;;;5045372;28;20326;-48
2021/03/27 11:22:06;;;;;;;0.80;0.80;;;;;;;;;;5087940;28;20204;-50
2021/03/27 11:25:09;;;;;;;1.63;0.90;;;;;;;;;;5086814;28;20192;-50
2021/03/27 11:27:56;;;;;;;1.93;0.67;;;;;;;;;;5079553;28;20192;-50
2021/03/27 11:30:55;;;;;;;2.00;0.70;;;;;;;;;;5077731;28;20212;-49
2021/03/27 11:33:46;;;;;;;0.93;0.83;;;;;;;;;;5068834;28;20205;-51
2021/03/27 11:36:36;;;;;;;3.57;0.93;;;;;;;;;;5067597;28;20246;-50
2021/03/27 11:39:21;;;;;;;1.63;0.70;;;;;;;;;;5087748;28;20193;-49
2021/03/27 11:41:57;;;;;;;3.83;1.00;;;;;;;;;;5087450;28;20207;-50
2021/03/27 11:44:39;;;;;;;1.60;0.93;;;;;;;;;;5091072;28;20192;-49
2021/03/27 11:47:21;;;;;;;2.00;0.80;;;;;;;;;;5064837;28;20197;-50
2021/03/27 11:50:18;;;;;;;2.57;1.13;;;;;;;;;;5085516;28;20199;-51
2021/03/27 11:52:56;;;;;;;2.73;0.80;;;;;;;;;;5080395;28;20217;-48
2021/03/27 11:55:25;;;;;;;1.57;0.80;;;;;;;;;;5073947;28;20333;-49
2021/03/27 11:57:57;;;;;;;7.07;1.90;;;;;;;;;;5083810;28;20207;-49
2021/03/27 12:01:00;;;;;;;5.57;1.30;;;;;;;;;;5078371;28;20208;-50
2021/03/27 12:03:38;;;;;;;3.27;1.30;;;;;;;;;;5083212;28;20184;-48
2021/03/27 12:06:19;;;;;;;4.43;1.60;;;;;;;;;;5085857;28;20192;-49
2021/03/27 12:09:10;;;;;;;3.23;1.23;;;;;;;;;;5083105;28;20214;-49
2021/03/27 12:12:08;;;;;;;5.83;1.57;;;;;;;;;;5085855;28;20716;-49
2021/03/27 12:15:05;;;;;;;7.03;1.50;;;;;;;;;;5067772;28;20193;-51
2021/03/27 12:18:22;;;;;;;3.73;1.17;;;;;;;;;;5075894;28;20192;-49
2021/03/27 12:20:55;;;;;;;1.80;1.40;;;;;;;;;;5036443;28;20212;-50
2021/03/27 12:23:35;;;;;;;4.07;1.37;;;;;;;;;;5084995;28;20245;-50
2021/03/27 12:26:13;;;;;;;6.73;1.90;;;;;;;;;;5087872;28;20200;-50
2021/03/27 12:28:45;;;;;;;3.87;1.53;;;;;;;;;;5074332;28;20196;-50
2021/03/27 12:31:35;;;;;;;5.47;1.50;;;;;;;;;;5069036;28;20212;-49
2021/03/27 12:34:19;;;;;;;11.23;2.03;;;;;;;;;;5085733;28;20219;-49
2021/03/27 12:37:03;;;;;;;4.03;1.83;;;;;;;;;;5063553;28;20196;-49
2021/03/27 12:39:45;;;;;;;4.63;2.20;;;;;;;;;;5073047;28;20631;-49
2021/03/27 12:42:14;;;;;;;5.77;2.07;;;;;;;;;;5070488;28;20224;-49
2021/03/27 12:44:43;;;;;;;7.10;2.20;;;;;;;;;;5071732;28;20189;-49
2021/03/27 12:47:36;;;;;;;5.70;2.10;;;;;;;;;;5072092;28;20189;-48
2021/03/27 12:50:07;;;;;;;5.40;2.20;;;;;;;;;;5081103;28;20195;-50
2021/03/27 12:53:05;;;;;;;7.13;2.10;;;;;;;;;;5084097;28;20665;-50
2021/03/27 12:55:46;;;;;;;4.33;2.00;;;;;;;;;;5083920;28;20356;-50
2021/03/27 12:58:41;;;;;;;5.37;2.17;;;;;;;;;;5075206;28;20189;-49
2021/03/27 13:01:30;;;;;;;4.10;1.93;;;;;;;;;;5077794;28;20572;-52
2021/03/27 13:04:32;;;;;;;6.87;1.97;;;;;;;;;;5073046;28;20193;-52
2021/03/27 13:07:27;;;;;;;7.03;2.73;;;;;;;;;;5075883;28;20280;-48
2021/03/27 13:10:10;;;;;;;3.57;1.80;;;;;;;;;;5053776;28;20257;-49
2021/03/27 13:12:56;;;;;;;7.70;2.60;;;;;;;;;;5085779;28;20213;-49
2021/03/27 13:15:43;;;;;;;10.07;2.73;;;;;;;;;;5076338;28;20188;-51
2021/03/27 13:18:35;;;;;;;8.70;2.60;;;;;;;;;;5074692;28;20180;-50
2021/03/27 13:21:45;;;;;;;4.07;3.00;;;;;;;;;;5084863;28;20209;-50
2021/03/27 13:24:19;;;;;;;5.87;2.80;;;;;;;;;;4999827;28;20226;-51
2021/03/27 13:26:46;;;;;;;8.13;3.50;;;;;;;;;;5066652;28;20211;-52
2021/03/27 13:29:34;;;;;;;3.73;1.77;;;;;;;;;;5082550;28;20203;-49
2021/03/27 13:32:05;;;;;;;2.90;1.40;;;;;;;;;;5083657;28;20204;-50
2021/03/27 13:34:41;;;;;;;4.17;1.73;;;;;;;;;;5076492;28;20205;-51
2021/03/27 13:37:28;;;;;;;4.33;1.83;;;;;;;;;;5083320;28;20184;-48
2021/03/27 13:39:59;;;;;;;5.30;1.73;;;;;;;;;;5080400;28;20628;-50
2021/03/27 13:42:42;;;;;;;4.20;1.10;;;;;;;;;;5082320;28;20238;-50
2021/03/27 13:45:26;;;;;;;5.17;1.90;;;;;;;;;;5066312;28;20688;-51
2021/03/27 13:48:22;;;;;;;4.23;1.47;;;;;;;;;;5066319;28;20196;-49
2021/03/27 13:51:13;;;;;;;4.23;1.50;;;;;;;;;;5085635;28;20204;-50
2021/03/27 13:53:51;;;;;;;6.57;1.80;;;;;;;;;;5084543;28;20223;-48
2021/03/27 13:56:35;;;;;;;4.87;2.03;;;;;;;;;;5076977;28;20188;-48
2021/03/27 13:59:12;;;;;;;2.67;1.63;;;;;;;;;;5082298;28;20743;-51
2021/03/27 14:01:40;;;;;;;5.17;2.20;;;;;;;;;;5079278;28;20242;-51
2021/03/27 14:04:30;;;;;;;2.10;1.70;;;;;;;;;;5070229;28;20291;-48
2021/03/27 14:07:01;;;;;;;3.60;1.47;;;;;;;;;;5070124;28;20299;-49
2021/03/27 14:09:50;;;;;;;1.93;1.70;;;;;;;;;;5081580;28;20188;-49
2021/03/27 14:12:29;;;;;;;1.67;1.40;;;;;;;;;;5082009;28;20217;-50
2021/03/27 14:15:00;;;;;;;2.87;2.43;;;;;;;;;;5083063;28;20188;-49
2021/03/27 14:17:46;;;;;;;4.03;3.63;;;;;;;;;;5085000;28;20874;-49
2021/03/27 14:20:44;;;;;;;6.73;4.30;;;;;;;;;;5081034;28;20595;-51
2021/03/27 14:23:52;;;;;;;3.20;1.93;;;;;;;;;;5058130;28;20245;-51
2021/03/27 14:26:32;;;;;;;2.30;2.10;;;;;;;;;;5064894;28;20188;-48
2021/03/27 14:29:07;;;;;;;3.80;2.10;;;;;;;;;;5082709;28;20189;-49
2021/03/27 14:31:44;;;;;;;2.37;2.17;;;;;;;;;;5078671;28;20697;-49
2021/03/27 14:34:49;;;;;;;2.70;1.57;;;;;;;;;;5062699;28;20825;-51
2021/03/27 14:37:28;;;;;;;2.53;1.47;;;;;;;;;;5085136;28;20882;-50
2021/03/27 14:40:13;;;;;;;3.10;1.50;;;;;;;;;;5087461;28;20235;-51
2021/03/27 14:42:59;;;;;;;4.00;1.10;;;;;;;;;;5087672;28;20266;-49
2021/03/27 14:45:53;;;;;;;2.83;1.10;;;;;;;;;;5081969;28;20612;-50
2021/03/27 14:48:50;;;;;;;1.77;1.00;;;;;;;;;;5087549;28;20211;-51
2021/03/27 14:51:49;;;;;;;3.53;1.00;;;;;;;;;;5065553;28;20299;-51
2021/03/27 14:54:20;;;;;;;2.03;1.00;;;;;;;;;;5086343;28;20187;-51
2021/03/27 14:56:49;;;;;;;2.20;1.10;;;;;;;;;;5082399;28;20193;-48
2021/03/27 14:59:25;;;;;;;3.60;1.20;;;;;;;;;;5081106;28;20196;-49
2021/03/27 15:01:55;;;;;;;4.17;1.13;;;;;;;;;;5090575;28;20575;-51
2021/03/27 15:04:31;;;;;;;2.47;1.23;;;;;;;;;;5084537;28;20188;-49
2021/03/27 15:07:35;;;;;;;3.67;1.33;;;;;;;;;;5082043;28;20195;-50
2021/03/27 15:10:19;;;;;;;1.80;0.90;;;;;;;;;;5079767;28;20180;-50
2021/03/27 15:12:53;;;;;;;4.73;1.23;;;;;;;;;;5085403;28;20211;-49
2021/03/27 15:15:25;;;;;;;3.33;1.20;;;;;;;;;;5068698;28;20199;-49
2021/03/27 15:17:52;;;;;;;2.83;1.00;;;;;;;;;;5088159;28;20562;-49
2021/03/27 15:20:23;;;;;;;1.97;1.10;;;;;;;;;;5081213;28;20208;-50
2021/03/27 15:22:56;;;;;;;3.10;1.30;;;;;;;;;;5079875;28;20187;-49
2021/03/27 15:28:42;;;;;;;4.53;1.90;;;;;;;;;;5083958;28;20207;-51
2021/03/27 15:31:10;;;;;;;1.97;1.27;;;;;;;;;;5074734;28;20221;-49
2021/03/27 15:33:50;;;;;;;2.83;1.40;;;;;;;;;;5080091;28;20226;-48
2021/03/27 15:36:27;;;;;;;9.07;1.30;;;;;;;;;;5084439;28;20287;-50
2021/03/27 15:39:11;;;;;;;3.23;1.03;;;;;;;;;;5080577;28;20231;-49
2021/03/27 15:41:52;;;;;;;2.10;1.27;;;;;;;;;;5072131;28;20208;-50
2021/03/27 15:44:21;;;;;;;2.83;1.20;;;;;;;;;;5073599;28;20597;-51
2021/03/27 15:47:09;;;;;;;2.23;1.40;;;;;;;;;;5058046;28;20649;-49
2021/03/27 15:49:43;;;;;;;3.30;1.20;;;;;;;;;;5081022;28;20328;-49
2021/03/27 15:52:32;;;;;;;4.93;1.50;;;;;;;;;;5075860;28;20572;-49
2021/03/27 15:55:17;;;;;;;3.47;1.20;;;;;;;;;;5078154;28;20285;-48
2021/03/27 15:57:48;;;;;;;3.13;1.20;;;;;;;;;;5078319;28;20196;-51
2021/03/27 16:00:24;;;;;;;3.23;1.60;;;;;;;;;;5080882;28;20564;-50
2021/03/27 16:03:16;;;;;;;1.67;1.10;;;;;;;;;;5076191;28;20176;-50
2021/03/27 16:05:52;;;;;;;3.40;1.23;;;;;;;;;;5080517;28;20268;-48
2021/03/27 16:08:25;;;;;;;4.30;1.47;;;;;;;;;;5069404;28;20803;-49
2021/03/27 16:11:29;;;;;;;3.17;1.03;;;;;;;;;;5076525;28;20251;-48
2021/03/27 16:14:31;;;;;;;5.17;1.20;;;;;;;;;;5066019;28;20200;-51
2021/03/27 16:17:15;;;;;;;3.73;1.10;;;;;;;;;;5073616;28;20216;-50
2021/03/27 16:19:55;;;;;;;1.87;0.90;;;;;;;;;;5079642;28;20188;-48
2021/03/27 16:22:32;;;;;;;1.90;0.87;;;;;;;;;;5076916;28;20867;-48